Terminal Aerodrome Forecast
Issued by NWS

Home | Current Version | Previous Version | Text Only | Print | Product List | Glossary On
Versions: 1 2 3 4 5 6 7 8 9 10 11 12 13 14 15 16 17 18 19 20 21 22 23 24 25 26 27 28 29 30 31
000
FTUS46 KMTR 210545
TAFSFO
TAF
KSFO 210545Z 2106/2212 25012KT P6SM VCSH FEW017 SCT040 BKN060
     FM210900 24012KT P6SM VCSH FEW035 BKN050
     FM211500 24015KT P6SM VCSH BKN050
     FM212100 22014KT P6SM VCSH BKN050
     FM220000 17013KT P6SM VCSH BKN050
     FM220300 12013KT P6SM -RA BKN035
     FM220600 13020KT P6SM -RA OVC035
     FM220900 15030KT P6SM -RA OVC025=

USA.gov is the U.S. government's official web portal to all federal, state and local government web resources and services.